sensor_id;sensor_type;location;lat;lon;timestamp;P1;durP1;ratioP1;P2;durP2;ratioP2
37169;SDS011;23062;13.952;100.608;2022-08-21T00:04:40;6.00;;;4.00;;
37169;SDS011;23062;13.952;100.608;2022-08-21T00:09:29;4.00;;;3.00;;
37169;SDS011;23062;13.952;100.608;2022-08-21T00:14:19;6.00;;;4.00;;
37169;SDS011;23062;13.952;100.608;2022-08-21T00:19:08;6.00;;;4.00;;
37169;SDS011;23062;13.952;100.608;2022-08-21T00:23:58;6.00;;;4.00;;
37169;SDS011;23062;13.952;100.608;2022-08-21T00:28:47;7.00;;;5.00;;
37169;SDS011;23062;13.952;100.608;2022-08-21T00:33:36;7.00;;;5.00;;
37169;SDS011;23062;13.952;100.608;2022-08-21T00:38:29;0.00;;;0.00;;
37169;SDS011;23062;13.952;100.608;2022-08-21T00:43:23;6.00;;;4.00;;
37169;SDS011;23062;13.952;100.608;2022-08-21T00:48:11;5.00;;;3.00;;
37169;SDS011;23062;13.952;100.608;2022-08-21T00:53:02;6.00;;;4.00;;
37169;SDS011;23062;13.952;100.608;2022-08-21T00:57:54;7.00;;;5.00;;
37169;SDS011;23062;13.952;100.608;2022-08-21T01:02:45;6.00;;;4.00;;
37169;SDS011;23062;13.952;100.608;2022-08-21T01:07:35;7.00;;;5.00;;
37169;SDS011;23062;13.952;100.608;2022-08-21T01:12:25;6.00;;;4.00;;
37169;SDS011;23062;13.952;100.608;2022-08-21T01:17:14;8.00;;;6.00;;
37169;SDS011;23062;13.952;100.608;2022-08-21T01:22:07;5.00;;;3.00;;
37169;SDS011;23062;13.952;100.608;2022-08-21T01:26:56;6.00;;;4.00;;
37169;SDS011;23062;13.952;100.608;2022-08-21T01:31:46;5.00;;;3.00;;
37169;SDS011;23062;13.952;100.608;2022-08-21T01:36:35;7.00;;;5.00;;
37169;SDS011;23062;13.952;100.608;2022-08-21T01:41:25;9.00;;;6.00;;
37169;SDS011;23062;13.952;100.608;2022-08-21T01:46:14;6.00;;;4.00;;
37169;SDS011;23062;13.952;100.608;2022-08-21T01:51:04;23.00;;;17.00;;
37169;SDS011;23062;13.952;100.608;2022-08-21T01:55:54;22.00;;;17.00;;
37169;SDS011;23062;13.952;100.608;2022-08-21T02:00:43;17.00;;;13.00;;
37169;SDS011;23062;13.952;100.608;2022-08-21T02:05:32;12.00;;;9.00;;
37169;SDS011;23062;13.952;100.608;2022-08-21T02:10:23;9.00;;;7.00;;
37169;SDS011;23062;13.952;100.608;2022-08-21T02:15:13;8.00;;;6.00;;
37169;SDS011;23062;13.952;100.608;2022-08-21T02:20:03;7.00;;;5.00;;
37169;SDS011;23062;13.952;100.608;2022-08-21T02:24:53;8.00;;;6.00;;
37169;SDS011;23062;13.952;100.608;2022-08-21T02:29:42;7.00;;;4.00;;
37169;SDS011;23062;13.952;100.608;2022-08-21T02:34:32;8.00;;;5.00;;
37169;SDS011;23062;13.952;100.608;2022-08-21T02:39:21;6.00;;;4.00;;
37169;SDS011;23062;13.952;100.608;2022-08-21T02:44:11;5.00;;;3.00;;
37169;SDS011;23062;13.952;100.608;2022-08-21T02:49:00;8.00;;;5.00;;
37169;SDS011;23062;13.952;100.608;2022-08-21T02:53:49;6.00;;;4.00;;
37169;SDS011;23062;13.952;100.608;2022-08-21T02:58:39;7.00;;;5.00;;
37169;SDS011;23062;13.952;100.608;2022-08-21T03:03:30;9.00;;;6.00;;
37169;SDS011;23062;13.952;100.608;2022-08-21T03:08:20;8.00;;;5.00;;
37169;SDS011;23062;13.952;100.608;2022-08-21T03:13:10;7.00;;;5.00;;
37169;SDS011;23062;13.952;100.608;2022-08-21T03:18:00;6.00;;;4.00;;
37169;SDS011;23062;13.952;100.608;2022-08-21T03:22:51;5.00;;;3.00;;
37169;SDS011;23062;13.952;100.608;2022-08-21T03:27:41;6.00;;;4.00;;
37169;SDS011;23062;13.952;100.608;2022-08-21T03:32:30;4.00;;;3.00;;
37169;SDS011;23062;13.952;100.608;2022-08-21T03:37:21;7.00;;;5.00;;
37169;SDS011;23062;13.952;100.608;2022-08-21T03:42:11;6.00;;;4.00;;
37169;SDS011;23062;13.952;100.608;2022-08-21T03:47:00;9.00;;;6.00;;
37169;SDS011;23062;13.952;100.608;2022-08-21T03:51:49;10.00;;;7.00;;
37169;SDS011;23062;13.952;100.608;2022-08-21T03:56:38;8.00;;;6.00;;
37169;SDS011;23062;13.952;100.608;2022-08-21T04:01:27;5.00;;;4.00;;
37169;SDS011;23062;13.952;100.608;2022-08-21T04:06:17;6.00;;;4.00;;
37169;SDS011;23062;13.952;100.608;2022-08-21T04:11:06;7.00;;;5.00;;
37169;SDS011;23062;13.952;100.608;2022-08-21T04:15:58;8.00;;;5.00;;
37169;SDS011;23062;13.952;100.608;2022-08-21T04:20:48;8.00;;;6.00;;
37169;SDS011;23062;13.952;100.608;2022-08-21T04:25:39;8.00;;;5.00;;
37169;SDS011;23062;13.952;100.608;2022-08-21T04:30:28;6.00;;;4.00;;
37169;SDS011;23062;13.952;100.608;2022-08-21T04:35:19;7.00;;;5.00;;
37169;SDS011;23062;13.952;100.608;2022-08-21T04:40:09;9.00;;;6.00;;
37169;SDS011;23062;13.952;100.608;2022-08-21T04:45:00;12.00;;;8.00;;
37169;SDS011;23062;13.952;100.608;2022-08-21T04:49:49;8.00;;;5.00;;
37169;SDS011;23062;13.952;100.608;2022-08-21T04:54:38;7.00;;;5.00;;
37169;SDS011;23062;13.952;100.608;2022-08-21T04:59:32;6.00;;;4.00;;
37169;SDS011;23062;13.952;100.608;2022-08-21T05:04:22;5.00;;;3.00;;
37169;SDS011;23062;13.952;100.608;2022-08-21T05:09:14;6.00;;;4.00;;
37169;SDS011;23062;13.952;100.608;2022-08-21T05:14:05;8.00;;;5.00;;
37169;SDS011;23062;13.952;100.608;2022-08-21T05:18:54;6.00;;;4.00;;
37169;SDS011;23062;13.952;100.608;2022-08-21T05:23:44;6.00;;;4.00;;
37169;SDS011;23062;13.952;100.608;2022-08-21T05:28:34;7.00;;;5.00;;
37169;SDS011;23062;13.952;100.608;2022-08-21T05:33:23;7.00;;;4.00;;
37169;SDS011;23062;13.952;100.608;2022-08-21T05:38:13;6.00;;;4.00;;
37169;SDS011;23062;13.952;100.608;2022-08-21T05:43:02;8.00;;;5.00;;
37169;SDS011;23062;13.952;100.608;2022-08-21T05:47:51;7.00;;;5.00;;
37169;SDS011;23062;13.952;100.608;2022-08-21T05:52:40;8.00;;;5.00;;
37169;SDS011;23062;13.952;100.608;2022-08-21T05:57:29;6.00;;;4.00;;
37169;SDS011;23062;13.952;100.608;2022-08-21T06:02:19;5.00;;;3.00;;
37169;SDS011;23062;13.952;100.608;2022-08-21T06:07:08;7.00;;;5.00;;
37169;SDS011;23062;13.952;100.608;2022-08-21T06:11:58;7.00;;;5.00;;
37169;SDS011;23062;13.952;100.608;2022-08-21T06:16:48;7.00;;;5.00;;
37169;SDS011;23062;13.952;100.608;2022-08-21T06:21:37;5.00;;;4.00;;
37169;SDS011;23062;13.952;100.608;2022-08-21T06:26:26;8.00;;;5.00;;
37169;SDS011;23062;13.952;100.608;2022-08-21T06:31:19;8.00;;;5.00;;
37169;SDS011;23062;13.952;100.608;2022-08-21T06:36:11;9.00;;;6.00;;
37169;SDS011;23062;13.952;100.608;2022-08-21T06:41:00;11.00;;;7.00;;
37169;SDS011;23062;13.952;100.608;2022-08-21T06:45:50;9.00;;;6.00;;
37169;SDS011;23062;13.952;100.608;2022-08-21T06:50:42;8.00;;;5.00;;
37169;SDS011;23062;13.952;100.608;2022-08-21T06:55:32;9.00;;;6.00;;
37169;SDS011;23062;13.952;100.608;2022-08-21T07:00:22;7.00;;;3.73;;
37169;SDS011;23062;13.952;100.608;2022-08-21T07:05:11;8.00;;;5.00;;
37169;SDS011;23062;13.952;100.608;2022-08-21T07:10:00;7.00;;;5.00;;
37169;SDS011;23062;13.952;100.608;2022-08-21T07:14:50;8.00;;;6.00;;
37169;SDS011;23062;13.952;100.608;2022-08-21T07:19:41;10.00;;;7.00;;
37169;SDS011;23062;13.952;100.608;2022-08-21T07:24:30;8.00;;;6.00;;
37169;SDS011;23062;13.952;100.608;2022-08-21T07:29:19;9.00;;;6.00;;
37169;SDS011;23062;13.952;100.608;2022-08-21T07:34:09;9.00;;;6.00;;
37169;SDS011;23062;13.952;100.608;2022-08-21T07:38:58;8.00;;;6.00;;
37169;SDS011;23062;13.952;100.608;2022-08-21T07:43:51;7.00;;;5.00;;
37169;SDS011;23062;13.952;100.608;2022-08-21T07:48:41;7.00;;;5.00;;
37169;SDS011;23062;13.952;100.608;2022-08-21T07:53:30;8.00;;;6.00;;
37169;SDS011;23062;13.952;100.608;2022-08-21T07:58:20;6.00;;;4.00;;
37169;SDS011;23062;13.952;100.608;2022-08-21T08:03:09;9.00;;;6.00;;
37169;SDS011;23062;13.952;100.608;2022-08-21T08:07:58;8.00;;;5.00;;
37169;SDS011;23062;13.952;100.608;2022-08-21T08:12:48;8.00;;;5.00;;
37169;SDS011;23062;13.952;100.608;2022-08-21T08:17:38;6.00;;;4.00;;
37169;SDS011;23062;13.952;100.608;2022-08-21T08:22:28;6.00;;;4.00;;
37169;SDS011;23062;13.952;100.608;2022-08-21T08:27:18;6.00;;;4.00;;
37169;SDS011;23062;13.952;100.608;2022-08-21T08:32:08;9.00;;;6.00;;
37169;SDS011;23062;13.952;100.608;2022-08-21T08:36:58;6.00;;;4.00;;
37169;SDS011;23062;13.952;100.608;2022-08-21T08:41:47;7.00;;;5.00;;
37169;SDS011;23062;13.952;100.608;2022-08-21T08:46:39;6.00;;;4.00;;
37169;SDS011;23062;13.952;100.608;2022-08-21T08:51:46;5.00;;;3.00;;
37169;SDS011;23062;13.952;100.608;2022-08-21T08:56:35;6.00;;;4.00;;
37169;SDS011;23062;13.952;100.608;2022-08-21T09:01:25;16.00;;;12.00;;
37169;SDS011;23062;13.952;100.608;2022-08-21T09:06:20;14.00;;;10.00;;
37169;SDS011;23062;13.952;100.608;2022-08-21T09:11:15;16.00;;;12.00;;
37169;SDS011;23062;13.952;100.608;2022-08-21T09:16:24;11.00;;;8.00;;
37169;SDS011;23062;13.952;100.608;2022-08-21T09:26:16;9.00;;;6.00;;
37169;SDS011;23062;13.952;100.608;2022-08-21T09:31:07;7.00;;;5.00;;
37169;SDS011;23062;13.952;100.608;2022-08-21T09:35:57;7.00;;;4.00;;
37169;SDS011;23062;13.952;100.608;2022-08-21T09:40:47;5.00;;;3.00;;
37169;SDS011;23062;13.952;100.608;2022-08-21T09:45:38;6.00;;;4.00;;
37169;SDS011;23062;13.952;100.608;2022-08-21T09:50:29;6.00;;;4.00;;
37169;SDS011;23062;13.952;100.608;2022-08-21T09:55:23;4.00;;;3.00;;
37169;SDS011;23062;13.952;100.608;2022-08-21T10:00:32;5.00;;;3.00;;
37169;SDS011;23062;13.952;100.608;2022-08-21T10:05:23;4.00;;;2.00;;
37169;SDS011;23062;13.952;100.608;2022-08-21T10:10:25;8.00;;;5.00;;
37169;SDS011;23062;13.952;100.608;2022-08-21T10:15:22;3.00;;;2.00;;
37169;SDS011;23062;13.952;100.608;2022-08-21T10:20:15;5.00;;;3.00;;
37169;SDS011;23062;13.952;100.608;2022-08-21T10:25:33;4.00;;;3.00;;
37169;SDS011;23062;13.952;100.608;2022-08-21T10:30:36;2.00;;;1.00;;
37169;SDS011;23062;13.952;100.608;2022-08-21T10:35:27;5.00;;;2.80;;
37169;SDS011;23062;13.952;100.608;2022-08-21T10:45:32;4.00;;;2.00;;
37169;SDS011;23062;13.952;100.608;2022-08-21T10:50:31;4.00;;;2.00;;
37169;SDS011;23062;13.952;100.608;2022-08-21T10:55:35;3.00;;;2.00;;
37169;SDS011;23062;13.952;100.608;2022-08-21T11:00:28;4.00;;;3.00;;
37169;SDS011;23062;13.952;100.608;2022-08-21T11:10:25;4.00;;;2.00;;
37169;SDS011;23062;13.952;100.608;2022-08-21T11:15:31;6.00;;;4.00;;
37169;SDS011;23062;13.952;100.608;2022-08-21T11:25:23;4.00;;;2.00;;
37169;SDS011;23062;13.952;100.608;2022-08-21T11:30:17;3.00;;;2.00;;
37169;SDS011;23062;13.952;100.608;2022-08-21T11:50:23;2.00;;;1.00;;
37169;SDS011;23062;13.952;100.608;2022-08-21T11:55:23;2.00;;;1.00;;
37169;SDS011;23062;13.952;100.608;2022-08-21T12:05:27;2.00;;;1.00;;
37169;SDS011;23062;13.952;100.608;2022-08-21T12:10:17;2.00;;;1.00;;
37169;SDS011;23062;13.952;100.608;2022-08-21T12:25:22;3.00;;;1.00;;
37169;SDS011;23062;13.952;100.608;2022-08-21T12:30:22;2.00;;;1.00;;
37169;SDS011;23062;13.952;100.608;2022-08-21T12:35:16;4.00;;;2.00;;
37169;SDS011;23062;13.952;100.608;2022-08-21T12:40:17;3.00;;;2.00;;
37169;SDS011;23062;13.952;100.608;2022-08-21T12:45:04;2.00;;;1.00;;
37169;SDS011;23062;13.952;100.608;2022-08-21T12:50:01;3.00;;;2.00;;
37169;SDS011;23062;13.952;100.608;2022-08-21T12:54:50;3.00;;;1.00;;
37169;SDS011;23062;13.952;100.608;2022-08-21T12:59:39;5.00;;;3.00;;
37169;SDS011;23062;13.952;100.608;2022-08-21T13:04:33;4.00;;;2.00;;
37169;SDS011;23062;13.952;100.608;2022-08-21T13:09:29;2.00;;;1.00;;
37169;SDS011;23062;13.952;100.608;2022-08-21T13:14:30;5.00;;;3.00;;
37169;SDS011;23062;13.952;100.608;2022-08-21T13:19:20;4.00;;;2.00;;
37169;SDS011;23062;13.952;100.608;2022-08-21T13:24:18;6.00;;;4.00;;
37169;SDS011;23062;13.952;100.608;2022-08-21T13:29:13;3.00;;;2.00;;
37169;SDS011;23062;13.952;100.608;2022-08-21T13:34:04;3.00;;;1.00;;
37169;SDS011;23062;13.952;100.608;2022-08-21T13:38:56;3.00;;;2.00;;
37169;SDS011;23062;13.952;100.608;2022-08-21T13:43:47;4.00;;;2.00;;
37169;SDS011;23062;13.952;100.608;2022-08-21T13:48:53;5.00;;;3.00;;
37169;SDS011;23062;13.952;100.608;2022-08-21T13:58:43;2.00;;;1.00;;
37169;SDS011;23062;13.952;100.608;2022-08-21T14:03:44;5.00;;;3.00;;
37169;SDS011;23062;13.952;100.608;2022-08-21T14:08:34;3.00;;;2.00;;
37169;SDS011;23062;13.952;100.608;2022-08-21T14:13:28;4.00;;;3.00;;
37169;SDS011;23062;13.952;100.608;2022-08-21T14:18:19;4.00;;;2.00;;
37169;SDS011;23062;13.952;100.608;2022-08-21T14:23:11;5.00;;;3.00;;
37169;SDS011;23062;13.952;100.608;2022-08-21T14:28:24;4.00;;;2.00;;
37169;SDS011;23062;13.952;100.608;2022-08-21T14:33:15;5.00;;;3.00;;
37169;SDS011;23062;13.952;100.608;2022-08-21T14:38:15;3.00;;;2.00;;
37169;SDS011;23062;13.952;100.608;2022-08-21T14:43:06;4.00;;;2.80;;
37169;SDS011;23062;13.952;100.608;2022-08-21T14:47:56;3.00;;;2.00;;
37169;SDS011;23062;13.952;100.608;2022-08-21T14:52:47;3.00;;;2.00;;
37169;SDS011;23062;13.952;100.608;2022-08-21T14:57:38;5.00;;;3.00;;
37169;SDS011;23062;13.952;100.608;2022-08-21T15:02:29;5.00;;;3.00;;
37169;SDS011;23062;13.952;100.608;2022-08-21T15:07:19;5.00;;;3.00;;
37169;SDS011;23062;13.952;100.608;2022-08-21T15:12:08;4.00;;;2.00;;
37169;SDS011;23062;13.952;100.608;2022-08-21T15:16:58;4.00;;;3.00;;
37169;SDS011;23062;13.952;100.608;2022-08-21T15:21:48;5.00;;;3.00;;
37169;SDS011;23062;13.952;100.608;2022-08-21T15:26:38;4.00;;;3.00;;
37169;SDS011;23062;13.952;100.608;2022-08-21T15:31:27;3.00;;;2.00;;
37169;SDS011;23062;13.952;100.608;2022-08-21T15:36:16;4.00;;;3.00;;
37169;SDS011;23062;13.952;100.608;2022-08-21T15:41:06;4.00;;;3.00;;
37169;SDS011;23062;13.952;100.608;2022-08-21T15:45:57;5.00;;;3.00;;
37169;SDS011;23062;13.952;100.608;2022-08-21T15:50:46;5.00;;;3.00;;
37169;SDS011;23062;13.952;100.608;2022-08-21T15:55:36;4.00;;;2.00;;
37169;SDS011;23062;13.952;100.608;2022-08-21T16:00:26;4.00;;;3.00;;
37169;SDS011;23062;13.952;100.608;2022-08-21T16:05:16;4.00;;;2.00;;
37169;SDS011;23062;13.952;100.608;2022-08-21T16:10:08;5.00;;;3.00;;
37169;SDS011;23062;13.952;100.608;2022-08-21T16:14:58;6.00;;;4.00;;
37169;SDS011;23062;13.952;100.608;2022-08-21T16:19:49;5.00;;;3.00;;
37169;SDS011;23062;13.952;100.608;2022-08-21T16:24:39;5.00;;;3.00;;
37169;SDS011;23062;13.952;100.608;2022-08-21T16:29:34;5.00;;;3.00;;
37169;SDS011;23062;13.952;100.608;2022-08-21T16:34:19;3.00;;;2.00;;
37169;SDS011;23062;13.952;100.608;2022-08-21T16:39:09;4.00;;;1.87;;
37169;SDS011;23062;13.952;100.608;2022-08-21T16:43:58;7.00;;;4.00;;
37169;SDS011;23062;13.952;100.608;2022-08-21T16:48:48;5.00;;;3.00;;
37169;SDS011;23062;13.952;100.608;2022-08-21T16:53:38;5.00;;;3.00;;
37169;SDS011;23062;13.952;100.608;2022-08-21T16:58:29;4.00;;;2.00;;
37169;SDS011;23062;13.952;100.608;2022-08-21T17:03:25;5.00;;;3.00;;
37169;SDS011;23062;13.952;100.608;2022-08-21T17:08:14;5.00;;;4.00;;
37169;SDS011;23062;13.952;100.608;2022-08-21T17:13:04;7.00;;;4.00;;
37169;SDS011;23062;13.952;100.608;2022-08-21T17:17:54;4.00;;;2.00;;
37169;SDS011;23062;13.952;100.608;2022-08-21T17:22:44;5.00;;;3.00;;
37169;SDS011;23062;13.952;100.608;2022-08-21T17:27:33;4.00;;;3.00;;
37169;SDS011;23062;13.952;100.608;2022-08-21T17:32:22;4.00;;;3.00;;
37169;SDS011;23062;13.952;100.608;2022-08-21T17:37:13;5.00;;;3.00;;
37169;SDS011;23062;13.952;100.608;2022-08-21T17:42:05;5.00;;;3.00;;
37169;SDS011;23062;13.952;100.608;2022-08-21T17:46:55;4.00;;;2.00;;
37169;SDS011;23062;13.952;100.608;2022-08-21T17:51:43;4.00;;;2.00;;
37169;SDS011;23062;13.952;100.608;2022-08-21T17:56:34;6.00;;;4.00;;
37169;SDS011;23062;13.952;100.608;2022-08-21T18:01:26;6.00;;;4.00;;
37169;SDS011;23062;13.952;100.608;2022-08-21T18:06:19;5.00;;;3.00;;
37169;SDS011;23062;13.952;100.608;2022-08-21T18:11:08;5.00;;;3.00;;
37169;SDS011;23062;13.952;100.608;2022-08-21T18:15:58;7.00;;;4.00;;
37169;SDS011;23062;13.952;100.608;2022-08-21T18:20:49;6.00;;;4.00;;
37169;SDS011;23062;13.952;100.608;2022-08-21T18:25:45;4.00;;;2.00;;
37169;SDS011;23062;13.952;100.608;2022-08-21T18:30:32;6.00;;;4.00;;
37169;SDS011;23062;13.952;100.608;2022-08-21T18:35:24;6.00;;;4.00;;
37169;SDS011;23062;13.952;100.608;2022-08-21T18:40:15;4.00;;;2.00;;
37169;SDS011;23062;13.952;100.608;2022-08-21T18:45:08;5.00;;;3.00;;
37169;SDS011;23062;13.952;100.608;2022-08-21T18:49:59;4.00;;;3.00;;
37169;SDS011;23062;13.952;100.608;2022-08-21T18:54:49;3.00;;;2.00;;
37169;SDS011;23062;13.952;100.608;2022-08-21T18:59:39;5.00;;;3.00;;
37169;SDS011;23062;13.952;100.608;2022-08-21T19:04:29;5.00;;;3.00;;
37169;SDS011;23062;13.952;100.608;2022-08-21T19:09:18;4.00;;;2.00;;
37169;SDS011;23062;13.952;100.608;2022-08-21T19:14:09;4.00;;;2.00;;
37169;SDS011;23062;13.952;100.608;2022-08-21T19:18:59;5.00;;;3.00;;
37169;SDS011;23062;13.952;100.608;2022-08-21T19:23:50;4.00;;;2.00;;
37169;SDS011;23062;13.952;100.608;2022-08-21T19:28:44;3.00;;;2.00;;
37169;SDS011;23062;13.952;100.608;2022-08-21T19:33:36;4.00;;;2.00;;
37169;SDS011;23062;13.952;100.608;2022-08-21T19:38:27;4.00;;;3.00;;
37169;SDS011;23062;13.952;100.608;2022-08-21T19:43:17;5.00;;;3.00;;
37169;SDS011;23062;13.952;100.608;2022-08-21T19:48:08;4.00;;;2.00;;
37169;SDS011;23062;13.952;100.608;2022-08-21T19:52:58;4.00;;;2.00;;
37169;SDS011;23062;13.952;100.608;2022-08-21T19:57:48;4.00;;;2.00;;
37169;SDS011;23062;13.952;100.608;2022-08-21T20:02:37;3.00;;;2.00;;
37169;SDS011;23062;13.952;100.608;2022-08-21T20:07:28;4.00;;;3.00;;
37169;SDS011;23062;13.952;100.608;2022-08-21T20:12:18;3.00;;;2.00;;
37169;SDS011;23062;13.952;100.608;2022-08-21T20:17:07;3.00;;;2.00;;
37169;SDS011;23062;13.952;100.608;2022-08-21T20:21:58;3.00;;;2.00;;
37169;SDS011;23062;13.952;100.608;2022-08-21T20:26:48;5.00;;;3.00;;
37169;SDS011;23062;13.952;100.608;2022-08-21T20:31:37;4.00;;;3.00;;
37169;SDS011;23062;13.952;100.608;2022-08-21T20:36:26;4.00;;;3.00;;
37169;SDS011;23062;13.952;100.608;2022-08-21T20:41:20;4.00;;;2.00;;
37169;SDS011;23062;13.952;100.608;2022-08-21T20:46:08;6.00;;;4.00;;
37169;SDS011;23062;13.952;100.608;2022-08-21T20:51:02;4.00;;;3.00;;
37169;SDS011;23062;13.952;100.608;2022-08-21T20:55:57;3.00;;;2.00;;
37169;SDS011;23062;13.952;100.608;2022-08-21T21:00:48;6.00;;;4.00;;
37169;SDS011;23062;13.952;100.608;2022-08-21T21:05:45;5.00;;;3.00;;
37169;SDS011;23062;13.952;100.608;2022-08-21T21:10:37;16.00;;;12.00;;
37169;SDS011;23062;13.952;100.608;2022-08-21T21:15:29;18.00;;;13.00;;
37169;SDS011;23062;13.952;100.608;2022-08-21T21:20:20;15.00;;;12.00;;
37169;SDS011;23062;13.952;100.608;2022-08-21T21:25:31;18.00;;;14.00;;
37169;SDS011;23062;13.952;100.608;2022-08-21T21:30:29;19.00;;;14.00;;
37169;SDS011;23062;13.952;100.608;2022-08-21T21:35:18;21.00;;;15.00;;
37169;SDS011;23062;13.952;100.608;2022-08-21T21:45:47;17.00;;;13.00;;
37169;SDS011;23062;13.952;100.608;2022-08-21T22:00:26;9.00;;;6.00;;
37169;SDS011;23062;13.952;100.608;2022-08-21T22:10:28;8.00;;;5.00;;
37169;SDS011;23062;13.952;100.608;2022-08-21T22:15:21;5.00;;;3.00;;
37169;SDS011;23062;13.952;100.608;2022-08-21T22:20:13;8.00;;;5.00;;
37169;SDS011;23062;13.952;100.608;2022-08-21T22:25:06;5.00;;;3.00;;
37169;SDS011;23062;13.952;100.608;2022-08-21T22:29:55;6.00;;;4.00;;
37169;SDS011;23062;13.952;100.608;2022-08-21T22:34:58;6.00;;;4.00;;
37169;SDS011;23062;13.952;100.608;2022-08-21T22:39:52;8.00;;;5.00;;
37169;SDS011;23062;13.952;100.608;2022-08-21T22:44:48;4.00;;;2.80;;
37169;SDS011;23062;13.952;100.608;2022-08-21T22:49:45;9.00;;;6.00;;
37169;SDS011;23062;13.952;100.608;2022-08-21T22:54:36;6.00;;;4.00;;
37169;SDS011;23062;13.952;100.608;2022-08-21T22:59:34;9.00;;;6.00;;
37169;SDS011;23062;13.952;100.608;2022-08-21T23:04:24;5.00;;;3.00;;
37169;SDS011;23062;13.952;100.608;2022-08-21T23:09:18;6.00;;;4.00;;
37169;SDS011;23062;13.952;100.608;2022-08-21T23:14:09;8.00;;;5.00;;
37169;SDS011;23062;13.952;100.608;2022-08-21T23:19:02;7.00;;;5.00;;
37169;SDS011;23062;13.952;100.608;2022-08-21T23:24:09;6.00;;;4.00;;
37169;SDS011;23062;13.952;100.608;2022-08-21T23:39:51;6.00;;;4.00;;
37169;SDS011;23062;13.952;100.608;2022-08-21T23:50:12;7.00;;;5.00;;
37169;SDS011;23062;13.952;100.608;2022-08-21T23:55:15;6.00;;;4.00;;
